sensor_id;sensor_type;location;lat;lon;timestamp;pressure;altitude;pressure_sealevel;temperature;humidity
28630;BME280;15817;42.130;24.762;2023-09-18T00:01:57;100349.03;;;22.40;86.62
28630;BME280;15817;42.130;24.762;2023-09-18T00:04:22;100336.66;;;22.34;86.93
28630;BME280;15817;42.130;24.762;2023-09-18T00:06:56;100345.38;;;22.41;86.94
28630;BME280;15817;42.130;24.762;2023-09-18T00:09:22;100333.00;;;22.35;87.32
28630;BME280;15817;42.130;24.762;2023-09-18T00:11:50;100333.94;;;22.34;87.17
28630;BME280;15817;42.130;24.762;2023-09-18T00:14:16;100348.31;;;22.36;87.08
28630;BME280;15817;42.130;24.762;2023-09-18T00:16:50;100340.81;;;22.23;87.46
28630;BME280;15817;42.130;24.762;2023-09-18T00:19:39;100331.94;;;22.19;87.94
28630;BME280;15817;42.130;24.762;2023-09-18T00:22:07;100329.22;;;22.19;87.84
28630;BME280;15817;42.130;24.762;2023-09-18T00:24:33;100333.50;;;22.25;87.57
28630;BME280;15817;42.130;24.762;2023-09-18T00:26:59;100335.41;;;22.23;87.70
28630;BME280;15817;42.130;24.762;2023-09-18T00:29:25;100337.97;;;22.26;87.94
28630;BME280;15817;42.130;24.762;2023-09-18T00:31:53;100331.88;;;22.21;88.45
28630;BME280;15817;42.130;24.762;2023-09-18T00:34:20;100332.75;;;22.21;88.39
28630;BME280;15817;42.130;24.762;2023-09-18T00:36:46;100339.19;;;22.19;88.42
28630;BME280;15817;42.130;24.762;2023-09-18T00:39:14;100328.78;;;22.10;88.88
28630;BME280;15817;42.130;24.762;2023-09-18T00:41:43;100339.47;;;22.13;89.16
28630;BME280;15817;42.130;24.762;2023-09-18T00:44:24;100332.31;;;22.12;88.72
28630;BME280;15817;42.130;24.762;2023-09-18T00:46:52;100336.59;;;22.16;88.70
28630;BME280;15817;42.130;24.762;2023-09-18T00:49:24;100339.91;;;22.03;88.54
28630;BME280;15817;42.130;24.762;2023-09-18T00:51:51;100341.88;;;22.00;89.03
28630;BME280;15817;42.130;24.762;2023-09-18T00:54:33;100342.03;;;21.95;88.93
28630;BME280;15817;42.130;24.762;2023-09-18T00:57:12;100331.69;;;21.85;89.46
28630;BME280;15817;42.130;24.762;2023-09-18T00:59:39;100336.91;;;21.89;89.18
28630;BME280;15817;42.130;24.762;2023-09-18T01:02:08;100332.19;;;21.93;88.75
28630;BME280;15817;42.130;24.762;2023-09-18T01:04:37;100333.38;;;21.87;88.65
28630;BME280;15817;42.130;24.762;2023-09-18T01:07:03;100332.50;;;21.87;88.96
28630;BME280;15817;42.130;24.762;2023-09-18T01:09:33;100318.63;;;21.74;89.27
28630;BME280;15817;42.130;24.762;2023-09-18T01:15:10;100336.34;;;21.81;89.32
28630;BME280;15817;42.130;24.762;2023-09-18T01:17:40;100334.19;;;21.89;88.74
28630;BME280;15817;42.130;24.762;2023-09-18T01:20:11;100327.50;;;21.78;88.70
28630;BME280;15817;42.130;24.762;2023-09-18T01:22:37;100331.03;;;21.80;89.50
28630;BME280;15817;42.130;24.762;2023-09-18T01:25:03;100328.91;;;21.86;88.86
28630;BME280;15817;42.130;24.762;2023-09-18T01:27:35;100331.31;;;21.92;88.44
28630;BME280;15817;42.130;24.762;2023-09-18T01:30:08;100332.06;;;21.96;88.08
28630;BME280;15817;42.130;24.762;2023-09-18T01:32:36;100327.59;;;21.95;87.90
28630;BME280;15817;42.130;24.762;2023-09-18T01:35:04;100331.03;;;22.00;87.89
28630;BME280;15817;42.130;24.762;2023-09-18T01:37:43;100325.84;;;21.94;87.87
28630;BME280;15817;42.130;24.762;2023-09-18T01:40:21;100326.06;;;21.89;88.38
28630;BME280;15817;42.130;24.762;2023-09-18T01:43:03;100324.50;;;21.84;88.48
28630;BME280;15817;42.130;24.762;2023-09-18T01:45:35;100316.38;;;21.84;88.43
28630;BME280;15817;42.130;24.762;2023-09-18T01:48:04;100324.38;;;21.87;88.33
28630;BME280;15817;42.130;24.762;2023-09-18T01:50:34;100321.66;;;21.87;88.07
28630;BME280;15817;42.130;24.762;2023-09-18T01:53:02;100326.88;;;21.91;88.04
28630;BME280;15817;42.130;24.762;2023-09-18T01:55:28;100333.31;;;21.89;87.93
28630;BME280;15817;42.130;24.762;2023-09-18T01:57:56;100330.72;;;21.86;88.29
28630;BME280;15817;42.130;24.762;2023-09-18T02:00:27;100328.38;;;21.78;88.38
28630;BME280;15817;42.130;24.762;2023-09-18T02:02:56;100333.56;;;21.83;88.36
28630;BME280;15817;42.130;24.762;2023-09-18T02:05:22;100330.66;;;21.87;88.07
28630;BME280;15817;42.130;24.762;2023-09-18T02:07:50;100324.56;;;21.82;87.99
28630;BME280;15817;42.130;24.762;2023-09-18T02:10:19;100336.22;;;21.84;87.84
28630;BME280;15817;42.130;24.762;2023-09-18T02:12:45;100334.25;;;21.88;88.08
28630;BME280;15817;42.130;24.762;2023-09-18T02:15:13;100341.38;;;21.90;87.64
28630;BME280;15817;42.130;24.762;2023-09-18T02:17:59;100335.06;;;21.90;87.87
28630;BME280;15817;42.130;24.762;2023-09-18T02:20:28;100328.16;;;21.83;88.28
28630;BME280;15817;42.130;24.762;2023-09-18T02:22:53;100326.25;;;21.85;88.23
28630;BME280;15817;42.130;24.762;2023-09-18T02:25:24;100327.28;;;21.82;88.01
28630;BME280;15817;42.130;24.762;2023-09-18T02:27:51;100336.97;;;21.88;87.64
28630;BME280;15817;42.130;24.762;2023-09-18T02:30:20;100336.16;;;21.86;87.72
28630;BME280;15817;42.130;24.762;2023-09-18T02:32:46;100347.81;;;21.88;87.76
28630;BME280;15817;42.130;24.762;2023-09-18T02:35:12;100339.88;;;21.83;87.94
28630;BME280;15817;42.130;24.762;2023-09-18T02:37:46;100331.81;;;21.82;87.94
28630;BME280;15817;42.130;24.762;2023-09-18T02:40:35;100328.50;;;21.75;87.99
28630;BME280;15817;42.130;24.762;2023-09-18T02:43:05;100349.09;;;21.79;88.10
28630;BME280;15817;42.130;24.762;2023-09-18T02:45:33;100350.03;;;21.78;88.26
28630;BME280;15817;42.130;24.762;2023-09-18T02:48:06;100337.50;;;21.76;87.85
28630;BME280;15817;42.130;24.762;2023-09-18T02:50:32;100339.16;;;21.80;87.91
28630;BME280;15817;42.130;24.762;2023-09-18T02:52:58;100337.69;;;21.71;88.31
28630;BME280;15817;42.130;24.762;2023-09-18T02:55:27;100343.47;;;21.63;88.34
28630;BME280;15817;42.130;24.762;2023-09-18T02:58:05;100347.41;;;21.56;88.51
28630;BME280;15817;42.130;24.762;2023-09-18T03:00:31;100341.22;;;21.53;88.81
28630;BME280;15817;42.130;24.762;2023-09-18T03:02:57;100346.47;;;21.57;89.07
28630;BME280;15817;42.130;24.762;2023-09-18T03:05:25;100349.94;;;21.59;89.02
28630;BME280;15817;42.130;24.762;2023-09-18T03:07:52;100348.53;;;21.51;89.63
28630;BME280;15817;42.130;24.762;2023-09-18T03:10:18;100346.81;;;21.48;89.84
28630;BME280;15817;42.130;24.762;2023-09-18T03:12:48;100354.75;;;21.53;89.59
28630;BME280;15817;42.130;24.762;2023-09-18T03:15:20;100355.44;;;21.58;89.57
28630;BME280;15817;42.130;24.762;2023-09-18T03:18:00;100358.81;;;21.63;89.17
28630;BME280;15817;42.130;24.762;2023-09-18T03:20:28;100354.28;;;21.63;89.04
28630;BME280;15817;42.130;24.762;2023-09-18T03:23:08;100358.59;;;21.69;89.01
28630;BME280;15817;42.130;24.762;2023-09-18T03:25:45;100353.53;;;21.60;89.40
28630;BME280;15817;42.130;24.762;2023-09-18T03:28:13;100353.59;;;21.58;89.95
28630;BME280;15817;42.130;24.762;2023-09-18T03:30:52;100356.53;;;21.54;89.88
28630;BME280;15817;42.130;24.762;2023-09-18T03:33:25;100346.97;;;21.45;90.20
28630;BME280;15817;42.130;24.762;2023-09-18T03:36:01;100340.00;;;21.40;90.53
28630;BME280;15817;42.130;24.762;2023-09-18T03:38:32;100355.09;;;21.45;90.76
28630;BME280;15817;42.130;24.762;2023-09-18T03:41:10;100353.13;;;21.49;90.42
28630;BME280;15817;42.130;24.762;2023-09-18T03:43:46;100355.78;;;21.50;90.36
28630;BME280;15817;42.130;24.762;2023-09-18T03:46:15;100353.06;;;21.50;90.36
28630;BME280;15817;42.130;24.762;2023-09-18T03:48:53;100353.13;;;21.49;89.96
28630;BME280;15817;42.130;24.762;2023-09-18T03:51:26;100350.28;;;21.52;89.95
28630;BME280;15817;42.130;24.762;2023-09-18T03:53:52;100353.75;;;21.55;89.62
28630;BME280;15817;42.130;24.762;2023-09-18T03:56:22;100345.63;;;21.55;89.28
28630;BME280;15817;42.130;24.762;2023-09-18T03:58:51;100356.25;;;21.60;89.15
28630;BME280;15817;42.130;24.762;2023-09-18T04:01:20;100353.06;;;21.50;89.50
28630;BME280;15817;42.130;24.762;2023-09-18T04:03:49;100368.34;;;21.51;89.84
28630;BME280;15817;42.130;24.762;2023-09-18T04:06:21;100362.19;;;21.48;89.61
28630;BME280;15817;42.130;24.762;2023-09-18T04:08:51;100368.47;;;21.48;90.27
28630;BME280;15817;42.130;24.762;2023-09-18T04:11:17;100362.94;;;21.51;89.88
28630;BME280;15817;42.130;24.762;2023-09-18T04:14:01;100356.78;;;21.48;89.65
28630;BME280;15817;42.130;24.762;2023-09-18T04:16:29;100362.94;;;21.51;89.69
28630;BME280;15817;42.130;24.762;2023-09-18T04:19:01;100365.84;;;21.47;89.93
28630;BME280;15817;42.130;24.762;2023-09-18T04:21:32;100368.34;;;21.51;89.86
28630;BME280;15817;42.130;24.762;2023-09-18T04:23:58;100365.06;;;21.45;89.64
28630;BME280;15817;42.130;24.762;2023-09-18T04:26:25;100367.53;;;21.49;89.78
28630;BME280;15817;42.130;24.762;2023-09-18T04:28:56;100363.94;;;21.49;89.86
28630;BME280;15817;42.130;24.762;2023-09-18T04:31:25;100363.94;;;21.49;89.98
28630;BME280;15817;42.130;24.762;2023-09-18T04:33:51;100352.19;;;21.50;89.86
28630;BME280;15817;42.130;24.762;2023-09-18T04:36:19;100364.28;;;21.41;90.32
28630;BME280;15817;42.130;24.762;2023-09-18T04:38:49;100358.13;;;21.38;90.91
28630;BME280;15817;42.130;24.762;2023-09-18T04:41:21;100354.28;;;21.43;90.53
28630;BME280;15817;42.130;24.762;2023-09-18T04:43:57;100362.94;;;21.51;90.48
28630;BME280;15817;42.130;24.762;2023-09-18T04:46:24;100364.78;;;21.51;89.95
28630;BME280;15817;42.130;24.762;2023-09-18T04:48:51;100361.88;;;21.55;89.91
28630;BME280;15817;42.130;24.762;2023-09-18T04:51:18;100365.59;;;21.53;89.77
28630;BME280;15817;42.130;24.762;2023-09-18T04:53:49;100361.19;;;21.50;89.55
28630;BME280;15817;42.130;24.762;2023-09-18T04:56:37;100355.00;;;21.47;91.22
28630;BME280;15817;42.130;24.762;2023-09-18T04:59:02;100367.13;;;21.58;92.82
28630;BME280;15817;42.130;24.762;2023-09-18T05:01:29;100356.06;;;21.64;92.17
28630;BME280;15817;42.130;24.762;2023-09-18T05:03:58;100359.59;;;21.66;90.27
28630;BME280;15817;42.130;24.762;2023-09-18T05:06:27;100365.88;;;21.67;89.71
28630;BME280;15817;42.130;24.762;2023-09-18T05:08:53;100372.19;;;21.67;89.55
28630;BME280;15817;42.130;24.762;2023-09-18T05:11:19;100368.72;;;21.64;89.16
28630;BME280;15817;42.130;24.762;2023-09-18T05:13:46;100366.47;;;21.53;89.14
28630;BME280;15817;42.130;24.762;2023-09-18T05:16:12;100364.84;;;21.49;89.51
28630;BME280;15817;42.130;24.762;2023-09-18T05:18:39;100361.47;;;21.44;89.73
28630;BME280;15817;42.130;24.762;2023-09-18T05:21:15;100364.22;;;21.43;89.75
28630;BME280;15817;42.130;24.762;2023-09-18T05:23:52;100378.38;;;21.49;89.20
28630;BME280;15817;42.130;24.762;2023-09-18T05:26:19;100360.53;;;21.45;89.12
28630;BME280;15817;42.130;24.762;2023-09-18T05:28:45;100363.00;;;21.50;89.08
28630;BME280;15817;42.130;24.762;2023-09-18T05:31:13;100366.59;;;21.50;88.21
28630;BME280;15817;42.130;24.762;2023-09-18T05:33:54;100358.53;;;21.49;87.07
28630;BME280;15817;42.130;24.762;2023-09-18T05:36:20;100361.00;;;21.55;87.22
28630;BME280;15817;42.130;24.762;2023-09-18T05:38:49;100358.00;;;21.61;87.25
28630;BME280;15817;42.130;24.762;2023-09-18T05:41:15;100351.53;;;21.65;86.62
28630;BME280;15817;42.130;24.762;2023-09-18T05:44:14;100353.94;;;21.71;85.52
28630;BME280;15817;42.130;24.762;2023-09-18T05:46:40;100352.19;;;21.70;84.84
28630;BME280;15817;42.130;24.762;2023-09-18T05:49:08;100353.16;;;21.69;85.23
28630;BME280;15817;42.130;24.762;2023-09-18T05:51:35;100358.34;;;21.74;85.37
28630;BME280;15817;42.130;24.762;2023-09-18T05:54:01;100360.88;;;21.78;84.68
28630;BME280;15817;42.130;24.762;2023-09-18T05:56:27;100365.34;;;21.79;84.61
28630;BME280;15817;42.130;24.762;2023-09-18T05:58:58;100363.53;;;21.80;85.21
28630;BME280;15817;42.130;24.762;2023-09-18T06:01:30;100359.78;;;21.82;84.67
28630;BME280;15817;42.130;24.762;2023-09-18T06:03:56;100366.28;;;21.78;84.25
28630;BME280;15817;42.130;24.762;2023-09-18T06:06:24;100359.31;;;21.73;84.18
28630;BME280;15817;42.130;24.762;2023-09-18T06:09:09;100368.53;;;21.68;83.85
28630;BME280;15817;42.130;24.762;2023-09-18T06:11:38;100368.59;;;21.67;84.04
28630;BME280;15817;42.130;24.762;2023-09-18T06:14:07;100378.47;;;21.68;84.88
28630;BME280;15817;42.130;24.762;2023-09-18T06:16:46;100374.06;;;21.65;84.38
28630;BME280;15817;42.130;24.762;2023-09-18T06:19:12;100385.66;;;21.69;84.79
28630;BME280;15817;42.130;24.762;2023-09-18T06:21:39;100387.47;;;21.68;84.70
28630;BME280;15817;42.130;24.762;2023-09-18T06:24:05;100383.81;;;21.69;84.68
28630;BME280;15817;42.130;24.762;2023-09-18T06:26:32;100382.06;;;21.68;84.65
28630;BME280;15817;42.130;24.762;2023-09-18T06:28:58;100387.19;;;21.75;84.65
28630;BME280;15817;42.130;24.762;2023-09-18T06:31:31;100387.19;;;21.75;84.42
28630;BME280;15817;42.130;24.762;2023-09-18T06:34:00;100395.25;;;21.76;84.17
28630;BME280;15817;42.130;24.762;2023-09-18T06:36:31;100387.06;;;21.78;84.65
28630;BME280;15817;42.130;24.762;2023-09-18T06:39:00;100391.38;;;21.82;84.10
28630;BME280;15817;42.130;24.762;2023-09-18T06:41:38;100399.59;;;21.80;84.21
28630;BME280;15817;42.130;24.762;2023-09-18T06:44:14;100387.63;;;21.86;84.17
28630;BME280;15817;42.130;24.762;2023-09-18T06:46:47;100390.13;;;21.90;84.59
28630;BME280;15817;42.130;24.762;2023-09-18T06:49:13;100381.19;;;21.88;84.97
28630;BME280;15817;42.130;24.762;2023-09-18T06:51:41;100398.34;;;22.09;85.80
28630;BME280;15817;42.130;24.762;2023-09-18T06:54:18;100384.19;;;22.23;84.49
28630;BME280;15817;42.130;24.762;2023-09-18T06:56:49;100389.38;;;22.27;83.31
28630;BME280;15817;42.130;24.762;2023-09-18T06:59:18;100393.19;;;22.23;82.44
28630;BME280;15817;42.130;24.762;2023-09-18T07:01:46;100385.25;;;22.19;80.65
28630;BME280;15817;42.130;24.762;2023-09-18T07:04:15;100383.38;;;22.21;79.61
28630;BME280;15817;42.130;24.762;2023-09-18T07:06:48;100385.06;;;22.23;80.33
28630;BME280;15817;42.130;24.762;2023-09-18T07:09:14;100377.50;;;22.30;80.48
28630;BME280;15817;42.130;24.762;2023-09-18T07:11:46;100382.25;;;22.45;80.59
28630;BME280;15817;42.130;24.762;2023-09-18T07:14:18;100381.53;;;22.60;79.90
28630;BME280;15817;42.130;24.762;2023-09-18T07:16:44;100374.84;;;22.67;79.12
28630;BME280;15817;42.130;24.762;2023-09-18T07:19:10;100385.59;;;22.89;78.95
28630;BME280;15817;42.130;24.762;2023-09-18T07:21:49;100376.56;;;23.07;77.91
28630;BME280;15817;42.130;24.762;2023-09-18T07:24:15;100384.28;;;23.34;77.17
28630;BME280;15817;42.130;24.762;2023-09-18T07:26:49;100387.88;;;23.53;77.04
28630;BME280;15817;42.130;24.762;2023-09-18T07:29:15;100387.69;;;23.56;76.70
28630;BME280;15817;42.130;24.762;2023-09-18T07:32:11;100385.63;;;23.61;75.48
28630;BME280;15817;42.130;24.762;2023-09-18T07:34:40;100396.50;;;23.78;74.48
28630;BME280;15817;42.130;24.762;2023-09-18T07:37:14;100394.09;;;23.90;74.61
28630;BME280;15817;42.130;24.762;2023-09-18T07:39:54;100387.22;;;23.82;71.56
28630;BME280;15817;42.130;24.762;2023-09-18T07:42:32;100393.06;;;23.92;75.00
28630;BME280;15817;42.130;24.762;2023-09-18T07:45:07;100397.94;;;24.03;72.44
28630;BME280;15817;42.130;24.762;2023-09-18T07:47:34;100391.16;;;23.94;72.81
28630;BME280;15817;42.130;24.762;2023-09-18T07:50:03;100395.06;;;23.89;74.03
28630;BME280;15817;42.130;24.762;2023-09-18T07:52:29;100387.38;;;23.79;72.27
28630;BME280;15817;42.130;24.762;2023-09-18T07:54:57;100391.53;;;23.69;73.42
28630;BME280;15817;42.130;24.762;2023-09-18T07:57:26;100389.28;;;24.12;71.92
28630;BME280;15817;42.130;24.762;2023-09-18T07:59:59;100392.75;;;24.48;68.59
28630;BME280;15817;42.130;24.762;2023-09-18T08:02:40;100388.97;;;24.35;68.14
28630;BME280;15817;42.130;24.762;2023-09-18T08:05:09;100379.44;;;24.60;69.79
28630;BME280;15817;42.130;24.762;2023-09-18T08:07:40;100387.59;;;24.93;69.08
28630;BME280;15817;42.130;24.762;2023-09-18T16:13:22;100058.69;;;25.29;45.59
28630;BME280;15817;42.130;24.762;2023-09-18T16:15:51;100051.72;;;25.25;46.15
28630;BME280;15817;42.130;24.762;2023-09-18T16:18:32;100058.22;;;25.22;46.89
28630;BME280;15817;42.130;24.762;2023-09-18T16:21:11;100058.03;;;25.25;46.47
28630;BME280;15817;42.130;24.762;2023-09-18T16:24:08;100068.81;;;25.27;45.97
28630;BME280;15817;42.130;24.762;2023-09-18T16:26:53;100070.09;;;25.21;46.70
28630;BME280;15817;42.130;24.762;2023-09-18T16:29:26;100062.88;;;25.20;47.59
28630;BME280;15817;42.130;24.762;2023-09-18T16:31:57;100066.66;;;25.18;47.03
28630;BME280;15817;42.130;24.762;2023-09-18T16:34:29;100071.16;;;25.19;46.85
28630;BME280;15817;42.130;24.762;2023-09-18T16:37:07;100076.91;;;25.14;47.38
28630;BME280;15817;42.130;24.762;2023-09-18T16:39:33;100082.22;;;25.16;47.69
28630;BME280;15817;42.130;24.762;2023-09-18T16:42:03;100070.75;;;25.11;47.79
28630;BME280;15817;42.130;24.762;2023-09-18T16:44:40;100074.72;;;25.05;47.40
28630;BME280;15817;42.130;24.762;2023-09-18T16:47:24;100079.59;;;25.00;47.49
28630;BME280;15817;42.130;24.762;2023-09-18T16:50:12;100090.47;;;25.00;47.69
28630;BME280;15817;42.130;24.762;2023-09-18T16:56:20;100097.25;;;24.93;47.44
28630;BME280;15817;42.130;24.762;2023-09-18T16:59:33;100092.88;;;24.90;47.45
28630;BME280;15817;42.130;24.762;2023-09-18T17:02:07;100086.72;;;24.87;47.69
28630;BME280;15817;42.130;24.762;2023-09-18T17:05:05;100092.53;;;24.81;47.75
28630;BME280;15817;42.130;24.762;2023-09-18T17:10:35;100105.56;;;24.76;48.60
28630;BME280;15817;42.130;24.762;2023-09-18T17:13:07;100105.72;;;24.73;48.25
28630;BME280;15817;42.130;24.762;2023-09-18T17:15:41;100107.41;;;24.75;48.59
28630;BME280;15817;42.130;24.762;2023-09-18T17:21:19;100102.31;;;24.69;48.85
28630;BME280;15817;42.130;24.762;2023-09-18T17:24:13;100110.59;;;24.68;48.89
28630;BME280;15817;42.130;24.762;2023-09-18T17:27:24;100117.16;;;24.64;48.65
28630;BME280;15817;42.130;24.762;2023-09-18T17:29:57;100109.19;;;24.61;48.67
28630;BME280;15817;42.130;24.762;2023-09-18T17:32:42;100117.53;;;24.58;48.70
28630;BME280;15817;42.130;24.762;2023-09-18T17:35:12;100115.09;;;24.53;48.84
28630;BME280;15817;42.130;24.762;2023-09-18T17:37:49;100111.66;;;24.49;49.12
28630;BME280;15817;42.130;24.762;2023-09-18T17:40:37;100115.34;;;24.48;48.84
28630;BME280;15817;42.130;24.762;2023-09-18T17:43:21;100132.63;;;24.47;48.99
28630;BME280;15817;42.130;24.762;2023-09-18T17:46:20;100129.03;;;24.47;48.98
28630;BME280;15817;42.130;24.762;2023-09-18T17:49:04;100133.72;;;24.45;49.39
28630;BME280;15817;42.130;24.762;2023-09-18T17:51:40;100127.84;;;24.37;49.24
28630;BME280;15817;42.130;24.762;2023-09-18T17:54:06;100140.53;;;24.36;49.08
28630;BME280;15817;42.130;24.762;2023-09-18T17:56:37;100142.50;;;24.34;49.27
28630;BME280;15817;42.130;24.762;2023-09-18T17:59:03;100137.16;;;24.33;49.21
28630;BME280;15817;42.130;24.762;2023-09-18T18:01:31;100147.94;;;24.34;49.65
28630;BME280;15817;42.130;24.762;2023-09-18T18:04:08;100149.97;;;24.31;50.09
28630;BME280;15817;42.130;24.762;2023-09-18T18:06:36;100149.25;;;24.27;49.58
28630;BME280;15817;42.130;24.762;2023-09-18T18:09:19;100156.53;;;24.27;50.24
28630;BME280;15817;42.130;24.762;2023-09-18T18:11:58;100155.81;;;24.23;50.08
28630;BME280;15817;42.130;24.762;2023-09-18T18:14:31;100149.66;;;24.19;50.45
28630;BME280;15817;42.130;24.762;2023-09-18T18:17:00;100165.25;;;24.16;50.57
28630;BME280;15817;42.130;24.762;2023-09-18T18:22:33;100178.94;;;24.14;51.08
28630;BME280;15817;42.130;24.762;2023-09-18T18:25:10;100179.22;;;24.10;51.33
28630;BME280;15817;42.130;24.762;2023-09-18T18:28:41;100177.53;;;24.07;51.49
28630;BME280;15817;42.130;24.762;2023-09-18T18:31:42;100182.25;;;24.04;52.12
28630;BME280;15817;42.130;24.762;2023-09-18T18:37:12;100186.47;;;23.94;52.39
28630;BME280;15817;42.130;24.762;2023-09-18T18:46:52;100197.34;;;23.94;52.91
28630;BME280;15817;42.130;24.762;2023-09-18T18:49:36;100196.09;;;23.83;53.26
28630;BME280;15817;42.130;24.762;2023-09-18T18:52:10;100205.03;;;23.86;53.84
28630;BME280;15817;42.130;24.762;2023-09-18T18:54:57;100210.47;;;23.86;54.27
28630;BME280;15817;42.130;24.762;2023-09-18T18:57:44;100212.47;;;23.82;54.21
28630;BME280;15817;42.130;24.762;2023-09-18T19:00:28;100215.34;;;23.79;54.50
28630;BME280;15817;42.130;24.762;2023-09-18T19:03:11;100217.38;;;23.75;55.09
28630;BME280;15817;42.130;24.762;2023-09-18T19:06:02;100220.25;;;23.72;55.28
28630;BME280;15817;42.130;24.762;2023-09-18T19:08:40;100227.59;;;23.70;55.56
28630;BME280;15817;42.130;24.762;2023-09-18T19:12:12;100233.19;;;23.67;55.63
28630;BME280;15817;42.130;24.762;2023-09-18T19:14:54;100235.91;;;23.67;56.25
28630;BME280;15817;42.130;24.762;2023-09-18T19:17:41;100240.97;;;23.58;56.50
28630;BME280;15817;42.130;24.762;2023-09-18T19:23:10;100231.44;;;23.49;56.98
28630;BME280;15817;42.130;24.762;2023-09-18T19:25:55;100233.22;;;23.50;57.13
28630;BME280;15817;42.130;24.762;2023-09-18T19:28:47;100233.22;;;23.50;57.30
28630;BME280;15817;42.130;24.762;2023-09-18T19:31:21;100241.44;;;23.48;57.86
28630;BME280;15817;42.130;24.762;2023-09-18T19:33:50;100235.34;;;23.43;58.30
28630;BME280;15817;42.130;24.762;2023-09-18T19:36:28;100230.91;;;23.25;58.17
28630;BME280;15817;42.130;24.762;2023-09-18T19:38:55;100234.50;;;23.26;58.86
28630;BME280;15817;42.130;24.762;2023-09-18T19:41:38;100236.97;;;23.30;58.71
28630;BME280;15817;42.130;24.762;2023-09-18T19:44:07;100245.00;;;23.32;58.58
28630;BME280;15817;42.130;24.762;2023-09-18T19:46:36;100242.41;;;23.30;58.54
28630;BME280;15817;42.130;24.762;2023-09-18T19:49:09;100250.78;;;23.26;58.10
28630;BME280;15817;42.130;24.762;2023-09-18T19:51:38;100244.47;;;23.25;58.56
28630;BME280;15817;42.130;24.762;2023-09-18T19:54:10;100246.06;;;23.29;58.64
28630;BME280;15817;42.130;24.762;2023-09-18T19:56:39;100242.78;;;23.23;59.17
28630;BME280;15817;42.130;24.762;2023-09-18T19:59:15;100251.06;;;23.20;59.30
28630;BME280;15817;42.130;24.762;2023-09-18T20:01:41;100237.63;;;23.18;59.75
28630;BME280;15817;42.130;24.762;2023-09-18T20:04:30;100235.13;;;23.14;59.78
28630;BME280;15817;42.130;24.762;2023-09-18T20:07:08;100238.94;;;23.09;60.01
28630;BME280;15817;42.130;24.762;2023-09-18T20:12:40;100242.06;;;23.02;59.97
28630;BME280;15817;42.130;24.762;2023-09-18T20:15:12;100248.59;;;22.98;60.37
28630;BME280;15817;42.130;24.762;2023-09-18T20:17:43;100241.41;;;22.97;59.94
28630;BME280;15817;42.130;24.762;2023-09-18T20:20:10;100234.06;;;22.99;60.20
28630;BME280;15817;42.130;24.762;2023-09-18T20:22:49;100242.38;;;22.96;60.23
28630;BME280;15817;42.130;24.762;2023-09-18T20:25:15;100248.19;;;22.88;60.13
28630;BME280;15817;42.130;24.762;2023-09-18T20:27:53;100231.16;;;22.85;60.72
28630;BME280;15817;42.130;24.762;2023-09-18T20:30:25;100239.22;;;22.86;61.17
28630;BME280;15817;42.130;24.762;2023-09-18T20:32:59;100241.31;;;22.81;61.65
28630;BME280;15817;42.130;24.762;2023-09-18T20:35:28;100240.00;;;22.71;62.22
28630;BME280;15817;42.130;24.762;2023-09-18T20:38:00;100258.44;;;22.63;62.31
28630;BME280;15817;42.130;24.762;2023-09-18T20:40:29;100252.16;;;22.62;62.74
28630;BME280;15817;42.130;24.762;2023-09-18T20:43:10;100257.00;;;22.56;63.33
28630;BME280;15817;42.130;24.762;2023-09-18T20:45:38;100246.16;;;22.56;63.65
28630;BME280;15817;42.130;24.762;2023-09-18T20:48:09;100253.50;;;22.54;63.35
28630;BME280;15817;42.130;24.762;2023-09-18T20:51:01;100248.91;;;22.37;63.93
28630;BME280;15817;42.130;24.762;2023-09-18T20:53:33;100256.72;;;22.43;63.74
28630;BME280;15817;42.130;24.762;2023-09-18T20:56:11;100262.53;;;22.35;64.15
28630;BME280;15817;42.130;24.762;2023-09-18T20:59:03;100260.47;;;22.03;65.12
28630;BME280;15817;42.130;24.762;2023-09-18T21:01:59;100260.16;;;22.09;64.81
28630;BME280;15817;42.130;24.762;2023-09-18T21:04:50;100263.31;;;22.19;64.60
28630;BME280;15817;42.130;24.762;2023-09-18T21:07:24;100259.59;;;22.21;64.46
28630;BME280;15817;42.130;24.762;2023-09-18T21:09:59;100262.44;;;22.18;64.13
28630;BME280;15817;42.130;24.762;2023-09-18T21:12:29;100263.88;;;22.07;64.66
28630;BME280;15817;42.130;24.762;2023-09-18T21:15:20;100245.69;;;21.90;65.45
28630;BME280;15817;42.130;24.762;2023-09-18T21:17:56;100262.16;;;21.85;65.74
28630;BME280;15817;42.130;24.762;2023-09-18T21:20:28;100246.78;;;21.86;66.07
28630;BME280;15817;42.130;24.762;2023-09-18T21:23:02;100249.53;;;21.84;65.98
28630;BME280;15817;42.130;24.762;2023-09-18T21:25:32;100254.22;;;21.81;66.04
28630;BME280;15817;42.130;24.762;2023-09-18T21:28:09;100254.91;;;21.86;65.99
28630;BME280;15817;42.130;24.762;2023-09-18T21:30:47;100254.03;;;21.85;66.18
28630;BME280;15817;42.130;24.762;2023-09-18T21:33:15;100247.53;;;21.89;65.86
28630;BME280;15817;42.130;24.762;2023-09-18T21:35:41;100238.41;;;21.72;66.23
28630;BME280;15817;42.130;24.762;2023-09-18T21:38:10;100249.38;;;21.68;66.58
28630;BME280;15817;42.130;24.762;2023-09-18T21:40:46;100257.72;;;21.64;67.17
28630;BME280;15817;42.130;24.762;2023-09-18T21:43:14;100252.84;;;21.52;67.17
28630;BME280;15817;42.130;24.762;2023-09-18T21:45:43;100249.25;;;21.51;67.48
28630;BME280;15817;42.130;24.762;2023-09-18T21:48:18;100251.09;;;21.51;67.27